sensor_id;sensor_type;location;lat;lon;timestamp;P1;durP1;ratioP1;P2;durP2;ratioP2
12248;SDS011;6187;50.778;6.142;2022-07-10T00:00:02;2.97;;;1.67;;
12248;SDS011;6187;50.778;6.142;2022-07-10T00:02:32;3.47;;;1.80;;
12248;SDS011;6187;50.778;6.142;2022-07-10T00:05:01;3.20;;;1.90;;
12248;SDS011;6187;50.778;6.142;2022-07-10T00:07:30;5.57;;;2.20;;
12248;SDS011;6187;50.778;6.142;2022-07-10T00:09:58;3.80;;;1.90;;
12248;SDS011;6187;50.778;6.142;2022-07-10T00:12:27;2.70;;;1.40;;
12248;SDS011;6187;50.778;6.142;2022-07-10T00:14:56;4.43;;;1.73;;
12248;SDS011;6187;50.778;6.142;2022-07-10T00:17:24;4.83;;;1.50;;
12248;SDS011;6187;50.778;6.142;2022-07-10T00:19:55;2.10;;;1.10;;
12248;SDS011;6187;50.778;6.142;2022-07-10T00:22:24;2.53;;;1.40;;
12248;SDS011;6187;50.778;6.142;2022-07-10T00:24:52;1.67;;;1.30;;
12248;SDS011;6187;50.778;6.142;2022-07-10T00:27:21;2.23;;;1.40;;
12248;SDS011;6187;50.778;6.142;2022-07-10T00:29:49;2.43;;;1.30;;
12248;SDS011;6187;50.778;6.142;2022-07-10T00:32:18;1.87;;;1.40;;
12248;SDS011;6187;50.778;6.142;2022-07-10T00:34:47;2.97;;;1.20;;
12248;SDS011;6187;50.778;6.142;2022-07-10T00:37:17;1.83;;;1.00;;
12248;SDS011;6187;50.778;6.142;2022-07-10T00:39:47;2.20;;;1.20;;
12248;SDS011;6187;50.778;6.142;2022-07-10T00:42:16;2.47;;;1.37;;
12248;SDS011;6187;50.778;6.142;2022-07-10T00:44:44;2.80;;;1.30;;
12248;SDS011;6187;50.778;6.142;2022-07-10T00:47:13;1.97;;;1.20;;
12248;SDS011;6187;50.778;6.142;2022-07-10T00:49:45;2.40;;;1.17;;
12248;SDS011;6187;50.778;6.142;2022-07-10T00:52:15;3.80;;;1.80;;
12248;SDS011;6187;50.778;6.142;2022-07-10T00:54:45;2.20;;;1.30;;
12248;SDS011;6187;50.778;6.142;2022-07-10T00:57:14;1.10;;;1.00;;
12248;SDS011;6187;50.778;6.142;2022-07-10T00:59:44;3.20;;;1.40;;
12248;SDS011;6187;50.778;6.142;2022-07-10T01:02:13;2.70;;;1.20;;
12248;SDS011;6187;50.778;6.142;2022-07-10T01:04:42;2.40;;;1.07;;
12248;SDS011;6187;50.778;6.142;2022-07-10T01:07:11;1.63;;;1.10;;
12248;SDS011;6187;50.778;6.142;2022-07-10T01:09:42;3.03;;;1.20;;
12248;SDS011;6187;50.778;6.142;2022-07-10T01:12:12;2.57;;;1.30;;
12248;SDS011;6187;50.778;6.142;2022-07-10T01:14:41;2.43;;;1.10;;
12248;SDS011;6187;50.778;6.142;2022-07-10T01:17:10;2.27;;;1.17;;
12248;SDS011;6187;50.778;6.142;2022-07-10T01:19:39;2.70;;;1.60;;
12248;SDS011;6187;50.778;6.142;2022-07-10T01:22:09;2.73;;;1.40;;
12248;SDS011;6187;50.778;6.142;2022-07-10T01:24:38;1.93;;;1.10;;
12248;SDS011;6187;50.778;6.142;2022-07-10T01:27:06;4.00;;;1.30;;
12248;SDS011;6187;50.778;6.142;2022-07-10T01:29:35;4.80;;;1.50;;
12248;SDS011;6187;50.778;6.142;2022-07-10T01:32:05;2.33;;;1.13;;
12248;SDS011;6187;50.778;6.142;2022-07-10T01:34:33;2.87;;;1.10;;
12248;SDS011;6187;50.778;6.142;2022-07-10T01:37:02;4.63;;;1.20;;
12248;SDS011;6187;50.778;6.142;2022-07-10T01:39:32;1.53;;;1.10;;
12248;SDS011;6187;50.778;6.142;2022-07-10T01:42:01;1.83;;;1.30;;
12248;SDS011;6187;50.778;6.142;2022-07-10T01:44:29;2.37;;;1.27;;
12248;SDS011;6187;50.778;6.142;2022-07-10T01:46:58;1.80;;;1.00;;
12248;SDS011;6187;50.778;6.142;2022-07-10T01:49:27;2.77;;;1.30;;
12248;SDS011;6187;50.778;6.142;2022-07-10T01:51:55;2.63;;;1.40;;
12248;SDS011;6187;50.778;6.142;2022-07-10T01:54:24;2.67;;;1.30;;
12248;SDS011;6187;50.778;6.142;2022-07-10T01:56:54;2.57;;;1.40;;
12248;SDS011;6187;50.778;6.142;2022-07-10T01:59:23;1.53;;;1.37;;
12248;SDS011;6187;50.778;6.142;2022-07-10T02:01:51;2.10;;;1.23;;
12248;SDS011;6187;50.778;6.142;2022-07-10T02:04:20;2.10;;;1.30;;
12248;SDS011;6187;50.778;6.142;2022-07-10T02:07:17;2.83;;;1.20;;
12248;SDS011;6187;50.778;6.142;2022-07-10T02:09:47;2.57;;;1.40;;
12248;SDS011;6187;50.778;6.142;2022-07-10T02:12:18;2.07;;;1.50;;
12248;SDS011;6187;50.778;6.142;2022-07-10T02:14:46;1.87;;;1.20;;
12248;SDS011;6187;50.778;6.142;2022-07-10T02:17:15;1.93;;;1.40;;
12248;SDS011;6187;50.778;6.142;2022-07-10T02:19:44;2.47;;;1.60;;
12248;SDS011;6187;50.778;6.142;2022-07-10T02:22:12;1.87;;;1.67;;
12248;SDS011;6187;50.778;6.142;2022-07-10T02:24:41;4.53;;;3.17;;
12248;SDS011;6187;50.778;6.142;2022-07-10T02:27:09;3.20;;;2.53;;
12248;SDS011;6187;50.778;6.142;2022-07-10T02:29:39;6.30;;;3.67;;
12248;SDS011;6187;50.778;6.142;2022-07-10T02:32:08;3.30;;;3.00;;
12248;SDS011;6187;50.778;6.142;2022-07-10T02:34:37;4.20;;;2.97;;
12248;SDS011;6187;50.778;6.142;2022-07-10T02:37:05;4.80;;;3.87;;
12248;SDS011;6187;50.778;6.142;2022-07-10T02:39:34;3.83;;;3.00;;
12248;SDS011;6187;50.778;6.142;2022-07-10T02:42:03;4.17;;;2.87;;
12248;SDS011;6187;50.778;6.142;2022-07-10T02:44:32;4.23;;;2.50;;
12248;SDS011;6187;50.778;6.142;2022-07-10T02:47:02;5.67;;;3.50;;
12248;SDS011;6187;50.778;6.142;2022-07-10T02:49:30;5.77;;;3.37;;
12248;SDS011;6187;50.778;6.142;2022-07-10T02:52:00;4.13;;;3.20;;
12248;SDS011;6187;50.778;6.142;2022-07-10T02:54:28;4.53;;;3.30;;
12248;SDS011;6187;50.778;6.142;2022-07-10T02:56:57;2.73;;;2.33;;
12248;SDS011;6187;50.778;6.142;2022-07-10T02:59:25;2.57;;;2.30;;
12248;SDS011;6187;50.778;6.142;2022-07-10T03:01:54;2.37;;;2.10;;
12248;SDS011;6187;50.778;6.142;2022-07-10T03:04:24;2.93;;;2.07;;
12248;SDS011;6187;50.778;6.142;2022-07-10T03:06:53;4.40;;;2.47;;
12248;SDS011;6187;50.778;6.142;2022-07-10T03:09:21;4.87;;;2.40;;
12248;SDS011;6187;50.778;6.142;2022-07-10T03:11:51;2.83;;;2.13;;
12248;SDS011;6187;50.778;6.142;2022-07-10T03:14:20;2.73;;;1.80;;
12248;SDS011;6187;50.778;6.142;2022-07-10T03:16:49;4.57;;;2.00;;
12248;SDS011;6187;50.778;6.142;2022-07-10T03:19:17;2.83;;;1.53;;
12248;SDS011;6187;50.778;6.142;2022-07-10T03:21:47;4.40;;;2.07;;
12248;SDS011;6187;50.778;6.142;2022-07-10T03:24:16;3.27;;;1.70;;
12248;SDS011;6187;50.778;6.142;2022-07-10T03:26:45;4.17;;;1.80;;
12248;SDS011;6187;50.778;6.142;2022-07-10T03:29:13;3.93;;;2.03;;
12248;SDS011;6187;50.778;6.142;2022-07-10T03:31:48;3.63;;;1.90;;
12248;SDS011;6187;50.778;6.142;2022-07-10T03:34:17;4.20;;;2.00;;
12248;SDS011;6187;50.778;6.142;2022-07-10T03:36:47;3.43;;;1.70;;
12248;SDS011;6187;50.778;6.142;2022-07-10T03:39:16;2.27;;;1.83;;
12248;SDS011;6187;50.778;6.142;2022-07-10T03:41:44;2.70;;;2.03;;
12248;SDS011;6187;50.778;6.142;2022-07-10T03:44:13;2.83;;;2.10;;
12248;SDS011;6187;50.778;6.142;2022-07-10T03:46:42;2.33;;;1.70;;
12248;SDS011;6187;50.778;6.142;2022-07-10T03:49:10;2.87;;;1.90;;
12248;SDS011;6187;50.778;6.142;2022-07-10T03:51:39;2.10;;;1.63;;
12248;SDS011;6187;50.778;6.142;2022-07-10T03:54:09;2.60;;;1.47;;
12248;SDS011;6187;50.778;6.142;2022-07-10T03:56:38;2.07;;;1.60;;
12248;SDS011;6187;50.778;6.142;2022-07-10T03:59:24;1.80;;;1.40;;
12248;SDS011;6187;50.778;6.142;2022-07-10T04:01:53;3.40;;;1.67;;
12248;SDS011;6187;50.778;6.142;2022-07-10T04:04:21;3.67;;;1.70;;
12248;SDS011;6187;50.778;6.142;2022-07-10T04:06:50;3.80;;;1.80;;
12248;SDS011;6187;50.778;6.142;2022-07-10T04:09:20;4.20;;;1.60;;
12248;SDS011;6187;50.778;6.142;2022-07-10T04:11:49;5.00;;;1.87;;
12248;SDS011;6187;50.778;6.142;2022-07-10T04:14:18;2.73;;;1.50;;
12248;SDS011;6187;50.778;6.142;2022-07-10T04:16:46;3.97;;;1.90;;
12248;SDS011;6187;50.778;6.142;2022-07-10T04:19:15;4.40;;;1.60;;
12248;SDS011;6187;50.778;6.142;2022-07-10T04:21:44;3.20;;;1.70;;
12248;SDS011;6187;50.778;6.142;2022-07-10T04:24:13;5.53;;;2.10;;
12248;SDS011;6187;50.778;6.142;2022-07-10T04:26:43;2.60;;;1.50;;
12248;SDS011;6187;50.778;6.142;2022-07-10T04:29:12;2.80;;;1.70;;
12248;SDS011;6187;50.778;6.142;2022-07-10T04:31:40;2.70;;;1.73;;
12248;SDS011;6187;50.778;6.142;2022-07-10T04:34:09;2.43;;;1.77;;
12248;SDS011;6187;50.778;6.142;2022-07-10T04:36:38;3.17;;;1.90;;
12248;SDS011;6187;50.778;6.142;2022-07-10T04:39:07;2.63;;;1.77;;
12248;SDS011;6187;50.778;6.142;2022-07-10T04:41:35;2.63;;;1.80;;
12248;SDS011;6187;50.778;6.142;2022-07-10T04:44:05;2.93;;;1.93;;
12248;SDS011;6187;50.778;6.142;2022-07-10T04:46:34;3.67;;;1.90;;
12248;SDS011;6187;50.778;6.142;2022-07-10T04:49:02;3.70;;;2.00;;
12248;SDS011;6187;50.778;6.142;2022-07-10T04:51:31;4.17;;;1.97;;
12248;SDS011;6187;50.778;6.142;2022-07-10T04:54:00;3.73;;;2.00;;
12248;SDS011;6187;50.778;6.142;2022-07-10T04:56:28;5.60;;;2.30;;
12248;SDS011;6187;50.778;6.142;2022-07-10T04:58:57;3.43;;;1.70;;
12248;SDS011;6187;50.778;6.142;2022-07-10T05:01:27;4.93;;;1.80;;
12248;SDS011;6187;50.778;6.142;2022-07-10T05:03:56;2.50;;;1.60;;
12248;SDS011;6187;50.778;6.142;2022-07-10T05:06:24;3.37;;;1.87;;
12248;SDS011;6187;50.778;6.142;2022-07-10T05:08:53;3.20;;;1.70;;
12248;SDS011;6187;50.778;6.142;2022-07-10T05:11:22;5.00;;;2.00;;
12248;SDS011;6187;50.778;6.142;2022-07-10T05:13:52;4.27;;;1.80;;
12248;SDS011;6187;50.778;6.142;2022-07-10T05:16:21;2.60;;;1.70;;
12248;SDS011;6187;50.778;6.142;2022-07-10T05:18:51;2.57;;;2.10;;
12248;SDS011;6187;50.778;6.142;2022-07-10T05:21:19;2.67;;;1.73;;
12248;SDS011;6187;50.778;6.142;2022-07-10T05:23:48;3.43;;;1.63;;
12248;SDS011;6187;50.778;6.142;2022-07-10T05:26:17;1.53;;;1.30;;
12248;SDS011;6187;50.778;6.142;2022-07-10T05:28:45;5.97;;;2.07;;
12248;SDS011;6187;50.778;6.142;2022-07-10T05:31:14;3.50;;;1.93;;
12248;SDS011;6187;50.778;6.142;2022-07-10T05:33:42;2.93;;;1.63;;
12248;SDS011;6187;50.778;6.142;2022-07-10T05:36:13;4.07;;;1.70;;
12248;SDS011;6187;50.778;6.142;2022-07-10T05:38:42;3.77;;;1.77;;
12248;SDS011;6187;50.778;6.142;2022-07-10T05:41:11;2.63;;;1.80;;
12248;SDS011;6187;50.778;6.142;2022-07-10T05:43:39;3.83;;;1.90;;
12248;SDS011;6187;50.778;6.142;2022-07-10T05:46:08;2.13;;;1.80;;
12248;SDS011;6187;50.778;6.142;2022-07-10T05:48:37;4.17;;;1.67;;
12248;SDS011;6187;50.778;6.142;2022-07-10T05:51:06;3.87;;;1.90;;
12248;SDS011;6187;50.778;6.142;2022-07-10T05:53:56;3.23;;;1.63;;
12248;SDS011;6187;50.778;6.142;2022-07-10T05:56:25;3.40;;;1.80;;
12248;SDS011;6187;50.778;6.142;2022-07-10T05:58:54;3.60;;;1.47;;
12248;SDS011;6187;50.778;6.142;2022-07-10T06:01:22;1.73;;;1.43;;
12248;SDS011;6187;50.778;6.142;2022-07-10T06:03:52;3.43;;;1.70;;
12248;SDS011;6187;50.778;6.142;2022-07-10T06:06:21;3.67;;;1.50;;
12248;SDS011;6187;50.778;6.142;2022-07-10T06:08:50;3.90;;;1.70;;
12248;SDS011;6187;50.778;6.142;2022-07-10T06:11:20;3.53;;;1.73;;
12248;SDS011;6187;50.778;6.142;2022-07-10T06:13:48;3.10;;;1.73;;
12248;SDS011;6187;50.778;6.142;2022-07-10T06:16:17;3.30;;;1.80;;
12248;SDS011;6187;50.778;6.142;2022-07-10T06:18:46;3.67;;;1.83;;
12248;SDS011;6187;50.778;6.142;2022-07-10T06:21:14;4.03;;;2.10;;
12248;SDS011;6187;50.778;6.142;2022-07-10T06:23:48;3.60;;;1.70;;
12248;SDS011;6187;50.778;6.142;2022-07-10T06:26:16;3.80;;;1.80;;
12248;SDS011;6187;50.778;6.142;2022-07-10T06:28:46;3.53;;;1.60;;
12248;SDS011;6187;50.778;6.142;2022-07-10T06:31:15;3.53;;;1.80;;
12248;SDS011;6187;50.778;6.142;2022-07-10T06:33:44;3.50;;;1.90;;
12248;SDS011;6187;50.778;6.142;2022-07-10T06:36:12;4.47;;;1.77;;
12248;SDS011;6187;50.778;6.142;2022-07-10T06:38:41;4.07;;;1.80;;
12248;SDS011;6187;50.778;6.142;2022-07-10T06:41:09;4.27;;;1.73;;
12248;SDS011;6187;50.778;6.142;2022-07-10T06:43:38;6.30;;;2.23;;
12248;SDS011;6187;50.778;6.142;2022-07-10T06:46:08;2.50;;;1.60;;
12248;SDS011;6187;50.778;6.142;2022-07-10T06:48:37;3.07;;;1.57;;
12248;SDS011;6187;50.778;6.142;2022-07-10T06:51:07;4.13;;;1.80;;
12248;SDS011;6187;50.778;6.142;2022-07-10T06:53:43;2.63;;;1.50;;
12248;SDS011;6187;50.778;6.142;2022-07-10T06:56:12;4.23;;;1.70;;
12248;SDS011;6187;50.778;6.142;2022-07-10T06:58:42;3.60;;;1.80;;
12248;SDS011;6187;50.778;6.142;2022-07-10T07:01:12;3.77;;;1.60;;
12248;SDS011;6187;50.778;6.142;2022-07-10T07:03:41;3.23;;;1.60;;
12248;SDS011;6187;50.778;6.142;2022-07-10T07:06:09;3.10;;;1.43;;
12248;SDS011;6187;50.778;6.142;2022-07-10T07:08:38;4.10;;;1.67;;
12248;SDS011;6187;50.778;6.142;2022-07-10T07:11:07;4.33;;;1.80;;
12248;SDS011;6187;50.778;6.142;2022-07-10T07:13:36;2.47;;;1.40;;
12248;SDS011;6187;50.778;6.142;2022-07-10T07:16:05;3.63;;;2.00;;
12248;SDS011;6187;50.778;6.142;2022-07-10T07:18:37;2.80;;;1.30;;
12248;SDS011;6187;50.778;6.142;2022-07-10T07:21:14;2.80;;;1.33;;
12248;SDS011;6187;50.778;6.142;2022-07-10T07:24:00;4.33;;;1.37;;
12248;SDS011;6187;50.778;6.142;2022-07-10T07:26:30;2.80;;;1.43;;
12248;SDS011;6187;50.778;6.142;2022-07-10T07:28:59;3.03;;;1.70;;
12248;SDS011;6187;50.778;6.142;2022-07-10T07:31:28;2.37;;;1.40;;
12248;SDS011;6187;50.778;6.142;2022-07-10T07:33:58;3.33;;;1.53;;
12248;SDS011;6187;50.778;6.142;2022-07-10T07:36:26;4.90;;;1.80;;
12248;SDS011;6187;50.778;6.142;2022-07-10T07:38:57;3.50;;;1.33;;
12248;SDS011;6187;50.778;6.142;2022-07-10T07:41:25;3.00;;;1.40;;
12248;SDS011;6187;50.778;6.142;2022-07-10T07:43:54;2.63;;;1.40;;
12248;SDS011;6187;50.778;6.142;2022-07-10T07:46:22;2.27;;;1.33;;
12248;SDS011;6187;50.778;6.142;2022-07-10T07:48:52;3.20;;;1.10;;
12248;SDS011;6187;50.778;6.142;2022-07-10T07:51:21;4.27;;;1.60;;
12248;SDS011;6187;50.778;6.142;2022-07-10T07:53:50;4.43;;;1.30;;
12248;SDS011;6187;50.778;6.142;2022-07-10T07:56:19;2.67;;;1.20;;
12248;SDS011;6187;50.778;6.142;2022-07-10T07:58:48;4.30;;;1.93;;
12248;SDS011;6187;50.778;6.142;2022-07-10T08:01:16;4.80;;;1.93;;
12248;SDS011;6187;50.778;6.142;2022-07-10T08:03:46;2.13;;;1.13;;
12248;SDS011;6187;50.778;6.142;2022-07-10T08:06:36;3.10;;;1.23;;
12248;SDS011;6187;50.778;6.142;2022-07-10T08:09:04;3.13;;;1.57;;
12248;SDS011;6187;50.778;6.142;2022-07-10T08:11:33;2.40;;;1.13;;
12248;SDS011;6187;50.778;6.142;2022-07-10T08:14:02;3.07;;;1.10;;
12248;SDS011;6187;50.778;6.142;2022-07-10T08:16:31;3.43;;;1.30;;
12248;SDS011;6187;50.778;6.142;2022-07-10T08:18:59;2.97;;;1.33;;
12248;SDS011;6187;50.778;6.142;2022-07-10T08:21:28;2.30;;;1.20;;
12248;SDS011;6187;50.778;6.142;2022-07-10T08:23:59;2.93;;;1.30;;
12248;SDS011;6187;50.778;6.142;2022-07-10T08:26:28;2.97;;;1.50;;
12248;SDS011;6187;50.778;6.142;2022-07-10T08:28:57;2.50;;;1.30;;
12248;SDS011;6187;50.778;6.142;2022-07-10T08:31:25;4.27;;;1.37;;
12248;SDS011;6187;50.778;6.142;2022-07-10T08:33:54;3.93;;;1.63;;
12248;SDS011;6187;50.778;6.142;2022-07-10T08:36:23;3.43;;;1.60;;
12248;SDS011;6187;50.778;6.142;2022-07-10T08:39:08;4.13;;;1.80;;
12248;SDS011;6187;50.778;6.142;2022-07-10T08:41:36;4.43;;;1.80;;
12248;SDS011;6187;50.778;6.142;2022-07-10T08:44:06;4.57;;;1.53;;
12248;SDS011;6187;50.778;6.142;2022-07-10T08:46:36;4.23;;;1.73;;
12248;SDS011;6187;50.778;6.142;2022-07-10T08:49:05;3.20;;;1.47;;
12248;SDS011;6187;50.778;6.142;2022-07-10T08:51:37;3.67;;;1.53;;
12248;SDS011;6187;50.778;6.142;2022-07-10T08:54:09;3.13;;;1.37;;
12248;SDS011;6187;50.778;6.142;2022-07-10T08:56:47;3.27;;;1.70;;
12248;SDS011;6187;50.778;6.142;2022-07-10T08:59:16;2.87;;;1.40;;
12248;SDS011;6187;50.778;6.142;2022-07-10T09:01:45;4.70;;;1.73;;
12248;SDS011;6187;50.778;6.142;2022-07-10T09:04:16;3.10;;;1.60;;
12248;SDS011;6187;50.778;6.142;2022-07-10T09:06:46;3.93;;;1.60;;
12248;SDS011;6187;50.778;6.142;2022-07-10T09:09:16;4.00;;;1.50;;
12248;SDS011;6187;50.778;6.142;2022-07-10T09:11:45;4.27;;;1.70;;
12248;SDS011;6187;50.778;6.142;2022-07-10T09:14:14;2.73;;;1.33;;
12248;SDS011;6187;50.778;6.142;2022-07-10T09:16:59;1.90;;;1.37;;
12248;SDS011;6187;50.778;6.142;2022-07-10T09:19:28;2.17;;;1.30;;
12248;SDS011;6187;50.778;6.142;2022-07-10T09:22:00;3.20;;;1.50;;
12248;SDS011;6187;50.778;6.142;2022-07-10T09:24:36;2.83;;;1.07;;
12248;SDS011;6187;50.778;6.142;2022-07-10T09:27:05;3.83;;;1.37;;
12248;SDS011;6187;50.778;6.142;2022-07-10T09:29:44;4.40;;;1.70;;
12248;SDS011;6187;50.778;6.142;2022-07-10T09:32:13;3.07;;;1.20;;
12248;SDS011;6187;50.778;6.142;2022-07-10T09:34:42;3.37;;;1.63;;
12248;SDS011;6187;50.778;6.142;2022-07-10T09:37:21;1.87;;;1.27;;
12248;SDS011;6187;50.778;6.142;2022-07-10T09:39:55;4.73;;;1.50;;
12248;SDS011;6187;50.778;6.142;2022-07-10T09:42:27;4.33;;;1.40;;
12248;SDS011;6187;50.778;6.142;2022-07-10T09:45:15;3.40;;;1.30;;
12248;SDS011;6187;50.778;6.142;2022-07-10T09:47:44;4.43;;;1.50;;
12248;SDS011;6187;50.778;6.142;2022-07-10T09:50:20;3.97;;;1.47;;
12248;SDS011;6187;50.778;6.142;2022-07-10T09:52:49;1.63;;;1.23;;
12248;SDS011;6187;50.778;6.142;2022-07-10T09:55:21;2.73;;;1.37;;
12248;SDS011;6187;50.778;6.142;2022-07-10T09:57:53;2.87;;;1.33;;
12248;SDS011;6187;50.778;6.142;2022-07-10T10:00:22;3.77;;;1.60;;
12248;SDS011;6187;50.778;6.142;2022-07-10T10:02:56;2.50;;;1.20;;
12248;SDS011;6187;50.778;6.142;2022-07-10T10:05:35;3.37;;;1.53;;
12248;SDS011;6187;50.778;6.142;2022-07-10T10:08:06;1.97;;;1.27;;
12248;SDS011;6187;50.778;6.142;2022-07-10T10:10:43;3.77;;;1.70;;
12248;SDS011;6187;50.778;6.142;2022-07-10T10:13:12;3.33;;;1.43;;
12248;SDS011;6187;50.778;6.142;2022-07-10T10:15:43;3.07;;;1.30;;
12248;SDS011;6187;50.778;6.142;2022-07-10T10:18:15;2.80;;;1.30;;
12248;SDS011;6187;50.778;6.142;2022-07-10T10:20:45;2.13;;;1.30;;
12248;SDS011;6187;50.778;6.142;2022-07-10T10:23:13;3.47;;;1.43;;
12248;SDS011;6187;50.778;6.142;2022-07-10T10:25:45;2.20;;;1.30;;
12248;SDS011;6187;50.778;6.142;2022-07-10T10:28:13;3.37;;;1.33;;
12248;SDS011;6187;50.778;6.142;2022-07-10T10:30:45;3.47;;;1.43;;
12248;SDS011;6187;50.778;6.142;2022-07-10T10:36:09;4.97;;;1.87;;
12248;SDS011;6187;50.778;6.142;2022-07-10T10:41:36;3.37;;;1.60;;
12248;SDS011;6187;50.778;6.142;2022-07-10T10:47:04;5.23;;;1.33;;
12248;SDS011;6187;50.778;6.142;2022-07-10T10:52:32;3.10;;;1.30;;
12248;SDS011;6187;50.778;6.142;2022-07-10T10:55:07;2.90;;;1.43;;
12248;SDS011;6187;50.778;6.142;2022-07-10T10:57:40;3.43;;;1.20;;
12248;SDS011;6187;50.778;6.142;2022-07-10T11:00:15;4.67;;;1.63;;
12248;SDS011;6187;50.778;6.142;2022-07-10T11:03:12;3.27;;;1.30;;
12248;SDS011;6187;50.778;6.142;2022-07-10T11:05:42;3.43;;;1.70;;
12248;SDS011;6187;50.778;6.142;2022-07-10T11:08:11;3.33;;;1.40;;
12248;SDS011;6187;50.778;6.142;2022-07-10T11:10:43;4.63;;;1.63;;
12248;SDS011;6187;50.778;6.142;2022-07-10T11:13:17;3.50;;;1.60;;
12248;SDS011;6187;50.778;6.142;2022-07-10T11:15:46;3.60;;;1.63;;
12248;SDS011;6187;50.778;6.142;2022-07-10T11:18:16;4.03;;;1.67;;
12248;SDS011;6187;50.778;6.142;2022-07-10T11:20:49;2.30;;;1.30;;
12248;SDS011;6187;50.778;6.142;2022-07-10T11:26:07;4.43;;;1.73;;
12248;SDS011;6187;50.778;6.142;2022-07-10T11:28:49;4.13;;;1.60;;
12248;SDS011;6187;50.778;6.142;2022-07-10T11:31:18;3.83;;;1.43;;
12248;SDS011;6187;50.778;6.142;2022-07-10T11:33:47;3.93;;;1.50;;
12248;SDS011;6187;50.778;6.142;2022-07-10T11:36:18;2.56;;;1.10;;
12248;SDS011;6187;50.778;6.142;2022-07-10T11:38:48;2.60;;;1.67;;
12248;SDS011;6187;50.778;6.142;2022-07-10T11:41:23;3.47;;;1.50;;
12248;SDS011;6187;50.778;6.142;2022-07-10T11:43:54;3.07;;;1.80;;
12248;SDS011;6187;50.778;6.142;2022-07-10T11:46:24;3.57;;;1.90;;
12248;SDS011;6187;50.778;6.142;2022-07-10T11:48:54;4.37;;;1.80;;
12248;SDS011;6187;50.778;6.142;2022-07-10T11:51:24;4.47;;;1.83;;
12248;SDS011;6187;50.778;6.142;2022-07-10T11:53:53;4.37;;;1.53;;
12248;SDS011;6187;50.778;6.142;2022-07-10T11:56:22;2.87;;;1.30;;
12248;SDS011;6187;50.778;6.142;2022-07-10T11:58:55;3.93;;;2.10;;
12248;SDS011;6187;50.778;6.142;2022-07-10T12:01:24;3.80;;;1.60;;
12248;SDS011;6187;50.778;6.142;2022-07-10T12:03:54;3.73;;;1.90;;
12248;SDS011;6187;50.778;6.142;2022-07-10T12:06:24;3.73;;;1.60;;
12248;SDS011;6187;50.778;6.142;2022-07-10T12:08:53;3.07;;;1.50;;
12248;SDS011;6187;50.778;6.142;2022-07-10T12:11:22;4.53;;;1.57;;
12248;SDS011;6187;50.778;6.142;2022-07-10T12:13:51;2.47;;;1.40;;
12248;SDS011;6187;50.778;6.142;2022-07-10T12:16:22;2.03;;;1.60;;
12248;SDS011;6187;50.778;6.142;2022-07-10T12:18:51;3.27;;;1.40;;
12248;SDS011;6187;50.778;6.142;2022-07-10T12:21:19;2.10;;;1.40;;
12248;SDS011;6187;50.778;6.142;2022-07-10T12:23:48;3.00;;;1.60;;
12248;SDS011;6187;50.778;6.142;2022-07-10T12:26:17;2.37;;;1.43;;
12248;SDS011;6187;50.778;6.142;2022-07-10T12:28:49;3.87;;;1.57;;
12248;SDS011;6187;50.778;6.142;2022-07-10T12:31:22;2.57;;;1.30;;
12248;SDS011;6187;50.778;6.142;2022-07-10T12:33:52;3.87;;;1.60;;
12248;SDS011;6187;50.778;6.142;2022-07-10T12:36:21;2.67;;;1.50;;
12248;SDS011;6187;50.778;6.142;2022-07-10T12:38:53;2.83;;;1.73;;
12248;SDS011;6187;50.778;6.142;2022-07-10T12:41:24;2.40;;;1.50;;
12248;SDS011;6187;50.778;6.142;2022-07-10T12:43:53;4.37;;;1.77;;
12248;SDS011;6187;50.778;6.142;2022-07-10T12:46:23;4.07;;;1.93;;
12248;SDS011;6187;50.778;6.142;2022-07-10T12:49:01;2.67;;;1.87;;
12248;SDS011;6187;50.778;6.142;2022-07-10T12:51:30;3.20;;;2.17;;
12248;SDS011;6187;50.778;6.142;2022-07-10T12:54:35;2.87;;;1.63;;
12248;SDS011;6187;50.778;6.142;2022-07-10T12:57:04;2.23;;;1.60;;
12248;SDS011;6187;50.778;6.142;2022-07-10T12:59:33;3.77;;;1.57;;
12248;SDS011;6187;50.778;6.142;2022-07-10T13:02:16;3.03;;;1.70;;
12248;SDS011;6187;50.778;6.142;2022-07-10T13:04:51;1.93;;;1.53;;
12248;SDS011;6187;50.778;6.142;2022-07-10T13:07:28;2.33;;;1.47;;
12248;SDS011;6187;50.778;6.142;2022-07-10T13:09:58;2.10;;;1.67;;
12248;SDS011;6187;50.778;6.142;2022-07-10T13:12:30;4.17;;;1.60;;
12248;SDS011;6187;50.778;6.142;2022-07-10T13:14:59;2.60;;;1.50;;
12248;SDS011;6187;50.778;6.142;2022-07-10T13:17:29;4.33;;;2.00;;
12248;SDS011;6187;50.778;6.142;2022-07-10T13:19:58;3.70;;;1.80;;
12248;SDS011;6187;50.778;6.142;2022-07-10T13:22:27;3.13;;;1.57;;
12248;SDS011;6187;50.778;6.142;2022-07-10T13:24:56;2.40;;;1.60;;
12248;SDS011;6187;50.778;6.142;2022-07-10T13:27:24;2.73;;;1.40;;
12248;SDS011;6187;50.778;6.142;2022-07-10T13:29:53;3.37;;;1.60;;
12248;SDS011;6187;50.778;6.142;2022-07-10T13:32:21;1.83;;;1.67;;
12248;SDS011;6187;50.778;6.142;2022-07-10T13:34:57;3.87;;;1.60;;
12248;SDS011;6187;50.778;6.142;2022-07-10T13:37:25;2.20;;;1.60;;
12248;SDS011;6187;50.778;6.142;2022-07-10T13:39:54;2.00;;;1.60;;
12248;SDS011;6187;50.778;6.142;2022-07-10T13:42:23;2.90;;;1.50;;
12248;SDS011;6187;50.778;6.142;2022-07-10T13:44:51;2.90;;;1.70;;
12248;SDS011;6187;50.778;6.142;2022-07-10T13:47:21;2.13;;;1.47;;
12248;SDS011;6187;50.778;6.142;2022-07-10T13:49:50;1.97;;;1.70;;
12248;SDS011;6187;50.778;6.142;2022-07-10T13:52:20;4.07;;;3.07;;
12248;SDS011;6187;50.778;6.142;2022-07-10T13:54:49;2.03;;;1.50;;
12248;SDS011;6187;50.778;6.142;2022-07-10T13:57:17;2.00;;;1.30;;
12248;SDS011;6187;50.778;6.142;2022-07-10T13:59:46;2.77;;;1.43;;
12248;SDS011;6187;50.778;6.142;2022-07-10T14:02:15;2.67;;;1.70;;
12248;SDS011;6187;50.778;6.142;2022-07-10T14:04:43;2.50;;;1.80;;
12248;SDS011;6187;50.778;6.142;2022-07-10T14:07:12;4.93;;;1.83;;
12248;SDS011;6187;50.778;6.142;2022-07-10T14:09:42;4.67;;;1.90;;
12248;SDS011;6187;50.778;6.142;2022-07-10T14:12:11;3.57;;;1.90;;
12248;SDS011;6187;50.778;6.142;2022-07-10T14:14:40;2.63;;;1.60;;
12248;SDS011;6187;50.778;6.142;2022-07-10T14:17:08;3.40;;;1.47;;
12248;SDS011;6187;50.778;6.142;2022-07-10T14:19:38;2.50;;;1.50;;
12248;SDS011;6187;50.778;6.142;2022-07-10T14:22:07;4.83;;;1.70;;
12248;SDS011;6187;50.778;6.142;2022-07-10T14:24:36;2.87;;;1.60;;
12248;SDS011;6187;50.778;6.142;2022-07-10T14:27:07;2.53;;;1.43;;
12248;SDS011;6187;50.778;6.142;2022-07-10T14:29:37;3.27;;;1.80;;
12248;SDS011;6187;50.778;6.142;2022-07-10T14:32:06;3.17;;;1.77;;
12248;SDS011;6187;50.778;6.142;2022-07-10T14:34:34;2.83;;;1.53;;
12248;SDS011;6187;50.778;6.142;2022-07-10T14:37:03;3.23;;;1.90;;
12248;SDS011;6187;50.778;6.142;2022-07-10T14:39:32;2.30;;;1.63;;
12248;SDS011;6187;50.778;6.142;2022-07-10T14:42:01;3.00;;;1.67;;
12248;SDS011;6187;50.778;6.142;2022-07-10T14:44:33;2.60;;;1.70;;
12248;SDS011;6187;50.778;6.142;2022-07-10T14:47:02;3.60;;;1.90;;
12248;SDS011;6187;50.778;6.142;2022-07-10T14:49:31;3.43;;;2.00;;
12248;SDS011;6187;50.778;6.142;2022-07-10T14:51:59;3.37;;;2.00;;
12248;SDS011;6187;50.778;6.142;2022-07-10T14:54:29;2.73;;;1.70;;
12248;SDS011;6187;50.778;6.142;2022-07-10T14:56:58;3.37;;;2.07;;
12248;SDS011;6187;50.778;6.142;2022-07-10T14:59:29;3.33;;;2.00;;
12248;SDS011;6187;50.778;6.142;2022-07-10T15:02:00;4.10;;;2.23;;
12248;SDS011;6187;50.778;6.142;2022-07-10T15:04:28;3.17;;;1.80;;
12248;SDS011;6187;50.778;6.142;2022-07-10T15:06:57;2.43;;;2.00;;
12248;SDS011;6187;50.778;6.142;2022-07-10T15:09:26;2.07;;;1.40;;
12248;SDS011;6187;50.778;6.142;2022-07-10T15:11:55;2.83;;;1.43;;
12248;SDS011;6187;50.778;6.142;2022-07-10T15:14:23;1.90;;;1.57;;
12248;SDS011;6187;50.778;6.142;2022-07-10T15:16:54;3.10;;;1.60;;
12248;SDS011;6187;50.778;6.142;2022-07-10T15:19:24;2.27;;;1.70;;
12248;SDS011;6187;50.778;6.142;2022-07-10T15:21:52;3.03;;;1.70;;
12248;SDS011;6187;50.778;6.142;2022-07-10T15:24:21;3.40;;;1.60;;
12248;SDS011;6187;50.778;6.142;2022-07-10T15:26:49;2.23;;;1.47;;
12248;SDS011;6187;50.778;6.142;2022-07-10T15:29:18;3.63;;;1.67;;
12248;SDS011;6187;50.778;6.142;2022-07-10T15:31:50;2.40;;;1.60;;